sensor_id;sensor_type;location;lat;lon;timestamp;P1;durP1;ratioP1;P2;durP2;ratioP2
62338;SDS011;48368;53.406;6.214;2023-05-07T00:00:11;32.33;;;21.58;;
62338;SDS011;48368;53.406;6.214;2023-05-07T00:02:40;32.28;;;21.40;;
62338;SDS011;48368;53.406;6.214;2023-05-07T00:05:06;31.50;;;22.08;;
62338;SDS011;48368;53.406;6.214;2023-05-07T00:07:32;33.08;;;21.88;;
62338;SDS011;48368;53.406;6.214;2023-05-07T00:09:57;30.48;;;22.60;;
62338;SDS011;48368;53.406;6.214;2023-05-07T00:12:23;30.73;;;21.80;;
62338;SDS011;48368;53.406;6.214;2023-05-07T00:14:49;37.75;;;23.80;;
62338;SDS011;48368;53.406;6.214;2023-05-07T00:17:14;31.10;;;22.58;;
62338;SDS011;48368;53.406;6.214;2023-05-07T00:19:40;34.85;;;21.92;;
62338;SDS011;48368;53.406;6.214;2023-05-07T00:22:06;34.05;;;23.23;;
62338;SDS011;48368;53.406;6.214;2023-05-07T00:24:33;35.20;;;22.88;;
62338;SDS011;48368;53.406;6.214;2023-05-07T00:26:59;31.63;;;21.77;;
62338;SDS011;48368;53.406;6.214;2023-05-07T00:29:26;29.75;;;21.60;;
62338;SDS011;48368;53.406;6.214;2023-05-07T00:31:52;32.03;;;21.90;;
62338;SDS011;48368;53.406;6.214;2023-05-07T00:34:19;34.28;;;23.02;;
62338;SDS011;48368;53.406;6.214;2023-05-07T00:36:45;32.67;;;22.88;;
62338;SDS011;48368;53.406;6.214;2023-05-07T00:39:11;32.50;;;22.48;;
62338;SDS011;48368;53.406;6.214;2023-05-07T00:41:36;35.50;;;22.52;;
62338;SDS011;48368;53.406;6.214;2023-05-07T00:44:02;36.20;;;25.00;;
62338;SDS011;48368;53.406;6.214;2023-05-07T00:46:28;33.88;;;24.00;;
62338;SDS011;48368;53.406;6.214;2023-05-07T00:48:55;40.20;;;25.20;;
62338;SDS011;48368;53.406;6.214;2023-05-07T00:51:21;37.60;;;23.50;;
62338;SDS011;48368;53.406;6.214;2023-05-07T00:53:48;40.67;;;24.65;;
62338;SDS011;48368;53.406;6.214;2023-05-07T00:56:14;36.83;;;23.73;;
62338;SDS011;48368;53.406;6.214;2023-05-07T00:58:40;35.55;;;25.42;;
62338;SDS011;48368;53.406;6.214;2023-05-07T01:01:06;35.72;;;24.00;;
62338;SDS011;48368;53.406;6.214;2023-05-07T01:03:32;34.90;;;24.52;;
62338;SDS011;48368;53.406;6.214;2023-05-07T01:05:58;33.30;;;24.50;;
62338;SDS011;48368;53.406;6.214;2023-05-07T01:08:26;39.63;;;23.65;;
62338;SDS011;48368;53.406;6.214;2023-05-07T01:10:54;38.85;;;24.63;;
62338;SDS011;48368;53.406;6.214;2023-05-07T01:13:21;41.85;;;24.92;;
62338;SDS011;48368;53.406;6.214;2023-05-07T01:15:47;42.22;;;26.77;;
62338;SDS011;48368;53.406;6.214;2023-05-07T01:18:13;37.15;;;24.63;;
62338;SDS011;48368;53.406;6.214;2023-05-07T01:20:39;42.85;;;26.92;;
62338;SDS011;48368;53.406;6.214;2023-05-07T01:23:05;40.85;;;26.80;;
62338;SDS011;48368;53.406;6.214;2023-05-07T01:25:32;47.00;;;28.02;;
62338;SDS011;48368;53.406;6.214;2023-05-07T01:27:58;38.45;;;25.73;;
62338;SDS011;48368;53.406;6.214;2023-05-07T01:30:27;41.47;;;26.40;;
62338;SDS011;48368;53.406;6.214;2023-05-07T01:32:59;41.80;;;26.08;;
62338;SDS011;48368;53.406;6.214;2023-05-07T01:35:35;42.42;;;27.67;;
62338;SDS011;48368;53.406;6.214;2023-05-07T01:38:07;45.83;;;28.20;;
62338;SDS011;48368;53.406;6.214;2023-05-07T01:40:33;41.40;;;27.48;;
62338;SDS011;48368;53.406;6.214;2023-05-07T01:43:00;43.30;;;28.48;;
62338;SDS011;48368;53.406;6.214;2023-05-07T01:45:30;44.00;;;28.58;;
62338;SDS011;48368;53.406;6.214;2023-05-07T01:48:01;48.80;;;28.63;;
62338;SDS011;48368;53.406;6.214;2023-05-07T01:50:28;49.28;;;30.13;;
62338;SDS011;48368;53.406;6.214;2023-05-07T01:52:54;53.50;;;30.27;;
62338;SDS011;48368;53.406;6.214;2023-05-07T01:55:20;48.53;;;29.02;;
62338;SDS011;48368;53.406;6.214;2023-05-07T01:57:46;47.92;;;30.23;;
62338;SDS011;48368;53.406;6.214;2023-05-07T02:00:12;51.08;;;31.75;;
62338;SDS011;48368;53.406;6.214;2023-05-07T02:02:38;54.17;;;33.58;;
62338;SDS011;48368;53.406;6.214;2023-05-07T02:05:04;52.85;;;29.98;;
62338;SDS011;48368;53.406;6.214;2023-05-07T02:07:30;56.17;;;32.90;;
62338;SDS011;48368;53.406;6.214;2023-05-07T02:09:56;53.15;;;31.95;;
62338;SDS011;48368;53.406;6.214;2023-05-07T02:12:22;58.00;;;31.80;;
62338;SDS011;48368;53.406;6.214;2023-05-07T02:14:48;54.20;;;31.45;;
62338;SDS011;48368;53.406;6.214;2023-05-07T02:17:13;58.53;;;33.75;;
62338;SDS011;48368;53.406;6.214;2023-05-07T02:19:39;60.58;;;33.67;;
62338;SDS011;48368;53.406;6.214;2023-05-07T02:22:05;56.85;;;33.22;;
62338;SDS011;48368;53.406;6.214;2023-05-07T02:24:30;63.22;;;35.33;;
62338;SDS011;48368;53.406;6.214;2023-05-07T02:26:56;60.67;;;34.88;;
62338;SDS011;48368;53.406;6.214;2023-05-07T02:29:22;57.60;;;34.05;;
62338;SDS011;48368;53.406;6.214;2023-05-07T02:31:47;60.10;;;34.03;;
62338;SDS011;48368;53.406;6.214;2023-05-07T02:34:18;62.67;;;35.72;;
62338;SDS011;48368;53.406;6.214;2023-05-07T02:36:44;59.58;;;35.25;;
62338;SDS011;48368;53.406;6.214;2023-05-07T02:39:10;62.78;;;35.53;;
62338;SDS011;48368;53.406;6.214;2023-05-07T02:41:37;62.83;;;37.42;;
62338;SDS011;48368;53.406;6.214;2023-05-07T02:44:03;64.88;;;38.00;;
62338;SDS011;48368;53.406;6.214;2023-05-07T02:46:29;68.32;;;36.13;;
62338;SDS011;48368;53.406;6.214;2023-05-07T02:48:54;69.00;;;35.92;;
62338;SDS011;48368;53.406;6.214;2023-05-07T02:51:21;63.08;;;36.20;;
62338;SDS011;48368;53.406;6.214;2023-05-07T02:53:47;68.75;;;37.58;;
62338;SDS011;48368;53.406;6.214;2023-05-07T02:56:13;61.13;;;33.83;;
62338;SDS011;48368;53.406;6.214;2023-05-07T02:58:39;65.68;;;35.30;;
62338;SDS011;48368;53.406;6.214;2023-05-07T03:01:05;64.28;;;34.50;;
62338;SDS011;48368;53.406;6.214;2023-05-07T03:03:31;68.80;;;37.22;;
62338;SDS011;48368;53.406;6.214;2023-05-07T03:05:56;64.82;;;37.65;;
62338;SDS011;48368;53.406;6.214;2023-05-07T03:08:22;59.85;;;34.05;;
62338;SDS011;48368;53.406;6.214;2023-05-07T03:10:48;60.00;;;35.25;;
62338;SDS011;48368;53.406;6.214;2023-05-07T03:13:13;57.47;;;35.42;;
62338;SDS011;48368;53.406;6.214;2023-05-07T03:15:39;56.63;;;32.05;;
62338;SDS011;48368;53.406;6.214;2023-05-07T03:18:05;59.00;;;34.00;;
62338;SDS011;48368;53.406;6.214;2023-05-07T03:20:31;61.17;;;35.50;;
62338;SDS011;48368;53.406;6.214;2023-05-07T03:22:57;56.13;;;33.58;;
62338;SDS011;48368;53.406;6.214;2023-05-07T03:25:22;57.72;;;34.03;;
62338;SDS011;48368;53.406;6.214;2023-05-07T03:27:48;56.35;;;32.28;;
62338;SDS011;48368;53.406;6.214;2023-05-07T03:30:14;68.13;;;37.55;;
62338;SDS011;48368;53.406;6.214;2023-05-07T03:32:40;69.82;;;36.20;;
62338;SDS011;48368;53.406;6.214;2023-05-07T03:35:06;62.53;;;35.00;;
62338;SDS011;48368;53.406;6.214;2023-05-07T03:37:32;66.07;;;37.05;;
62338;SDS011;48368;53.406;6.214;2023-05-07T03:39:57;69.70;;;37.45;;
62338;SDS011;48368;53.406;6.214;2023-05-07T03:42:23;68.78;;;38.72;;
62338;SDS011;48368;53.406;6.214;2023-05-07T03:44:49;66.47;;;36.42;;
62338;SDS011;48368;53.406;6.214;2023-05-07T03:47:14;67.13;;;35.95;;
62338;SDS011;48368;53.406;6.214;2023-05-07T03:49:40;61.33;;;34.08;;
62338;SDS011;48368;53.406;6.214;2023-05-07T03:52:06;73.13;;;36.67;;
62338;SDS011;48368;53.406;6.214;2023-05-07T03:54:32;64.20;;;36.47;;
62338;SDS011;48368;53.406;6.214;2023-05-07T03:56:57;66.07;;;36.00;;
62338;SDS011;48368;53.406;6.214;2023-05-07T03:59:23;62.78;;;33.53;;
62338;SDS011;48368;53.406;6.214;2023-05-07T04:01:48;61.20;;;33.72;;
62338;SDS011;48368;53.406;6.214;2023-05-07T04:04:15;62.35;;;34.53;;
62338;SDS011;48368;53.406;6.214;2023-05-07T04:06:40;62.63;;;34.60;;
62338;SDS011;48368;53.406;6.214;2023-05-07T04:09:06;63.35;;;34.78;;
62338;SDS011;48368;53.406;6.214;2023-05-07T04:11:32;64.93;;;35.83;;
62338;SDS011;48368;53.406;6.214;2023-05-07T04:13:58;62.35;;;34.25;;
62338;SDS011;48368;53.406;6.214;2023-05-07T04:16:24;60.03;;;33.65;;
62338;SDS011;48368;53.406;6.214;2023-05-07T04:18:50;63.97;;;34.88;;
62338;SDS011;48368;53.406;6.214;2023-05-07T04:21:19;65.25;;;36.80;;
62338;SDS011;48368;53.406;6.214;2023-05-07T04:23:46;64.68;;;35.58;;
62338;SDS011;48368;53.406;6.214;2023-05-07T04:26:12;67.72;;;35.95;;
62338;SDS011;48368;53.406;6.214;2023-05-07T04:28:38;67.90;;;35.88;;
62338;SDS011;48368;53.406;6.214;2023-05-07T04:31:05;66.95;;;36.90;;
62338;SDS011;48368;53.406;6.214;2023-05-07T04:33:31;65.05;;;34.70;;
62338;SDS011;48368;53.406;6.214;2023-05-07T04:35:58;65.25;;;36.33;;
62338;SDS011;48368;53.406;6.214;2023-05-07T04:38:28;68.40;;;36.35;;
62338;SDS011;48368;53.406;6.214;2023-05-07T04:40:55;66.55;;;35.58;;
62338;SDS011;48368;53.406;6.214;2023-05-07T04:43:21;62.88;;;34.05;;
62338;SDS011;48368;53.406;6.214;2023-05-07T04:45:46;64.43;;;34.50;;
62338;SDS011;48368;53.406;6.214;2023-05-07T04:48:14;61.10;;;33.17;;
62338;SDS011;48368;53.406;6.214;2023-05-07T04:50:41;55.75;;;32.03;;
62338;SDS011;48368;53.406;6.214;2023-05-07T04:53:06;56.47;;;32.00;;
62338;SDS011;48368;53.406;6.214;2023-05-07T04:55:32;51.80;;;30.83;;
62338;SDS011;48368;53.406;6.214;2023-05-07T04:57:58;57.80;;;32.53;;
62338;SDS011;48368;53.406;6.214;2023-05-07T05:00:25;53.63;;;33.25;;
62338;SDS011;48368;53.406;6.214;2023-05-07T05:02:51;59.03;;;33.20;;
62338;SDS011;48368;53.406;6.214;2023-05-07T05:05:16;62.80;;;34.53;;
62338;SDS011;48368;53.406;6.214;2023-05-07T05:07:42;71.85;;;37.13;;
62338;SDS011;48368;53.406;6.214;2023-05-07T05:10:08;69.03;;;38.13;;
62338;SDS011;48368;53.406;6.214;2023-05-07T05:12:34;63.85;;;35.83;;
62338;SDS011;48368;53.406;6.214;2023-05-07T05:14:59;58.40;;;31.85;;
62338;SDS011;48368;53.406;6.214;2023-05-07T05:17:25;57.72;;;31.02;;
62338;SDS011;48368;53.406;6.214;2023-05-07T05:19:50;57.45;;;31.60;;
62338;SDS011;48368;53.406;6.214;2023-05-07T05:22:16;52.55;;;32.70;;
62338;SDS011;48368;53.406;6.214;2023-05-07T05:24:42;55.80;;;32.92;;
62338;SDS011;48368;53.406;6.214;2023-05-07T05:27:07;51.50;;;30.73;;
62338;SDS011;48368;53.406;6.214;2023-05-07T05:29:33;59.50;;;30.92;;
62338;SDS011;48368;53.406;6.214;2023-05-07T05:31:58;52.63;;;29.63;;
62338;SDS011;48368;53.406;6.214;2023-05-07T05:34:24;49.45;;;28.05;;
62338;SDS011;48368;53.406;6.214;2023-05-07T05:36:50;49.67;;;29.15;;
62338;SDS011;48368;53.406;6.214;2023-05-07T05:39:15;54.58;;;30.33;;
62338;SDS011;48368;53.406;6.214;2023-05-07T05:41:41;52.83;;;31.30;;
62338;SDS011;48368;53.406;6.214;2023-05-07T05:44:07;59.42;;;33.47;;
62338;SDS011;48368;53.406;6.214;2023-05-07T05:46:33;58.80;;;34.65;;
62338;SDS011;48368;53.406;6.214;2023-05-07T05:48:59;65.55;;;33.97;;
62338;SDS011;48368;53.406;6.214;2023-05-07T05:51:25;63.17;;;36.28;;
62338;SDS011;48368;53.406;6.214;2023-05-07T05:53:51;64.50;;;36.45;;
62338;SDS011;48368;53.406;6.214;2023-05-07T05:56:17;66.03;;;35.08;;
62338;SDS011;48368;53.406;6.214;2023-05-07T05:58:42;65.45;;;35.17;;
62338;SDS011;48368;53.406;6.214;2023-05-07T06:01:08;70.95;;;37.08;;
62338;SDS011;48368;53.406;6.214;2023-05-07T06:03:34;75.38;;;39.65;;
62338;SDS011;48368;53.406;6.214;2023-05-07T06:06:00;73.68;;;39.92;;
62338;SDS011;48368;53.406;6.214;2023-05-07T06:08:28;79.43;;;41.92;;
62338;SDS011;48368;53.406;6.214;2023-05-07T06:10:54;77.50;;;39.60;;
62338;SDS011;48368;53.406;6.214;2023-05-07T06:13:20;87.68;;;40.40;;
62338;SDS011;48368;53.406;6.214;2023-05-07T06:15:45;79.18;;;41.75;;
62338;SDS011;48368;53.406;6.214;2023-05-07T06:18:11;86.80;;;43.45;;
62338;SDS011;48368;53.406;6.214;2023-05-07T06:20:37;85.38;;;42.40;;
62338;SDS011;48368;53.406;6.214;2023-05-07T06:23:02;90.32;;;45.13;;
62338;SDS011;48368;53.406;6.214;2023-05-07T06:25:30;88.38;;;44.60;;
62338;SDS011;48368;53.406;6.214;2023-05-07T06:27:55;90.03;;;45.45;;
62338;SDS011;48368;53.406;6.214;2023-05-07T06:30:22;84.95;;;43.63;;
62338;SDS011;48368;53.406;6.214;2023-05-07T06:32:47;82.82;;;44.78;;
62338;SDS011;48368;53.406;6.214;2023-05-07T06:35:13;92.78;;;45.85;;
62338;SDS011;48368;53.406;6.214;2023-05-07T06:37:40;93.93;;;46.85;;
62338;SDS011;48368;53.406;6.214;2023-05-07T06:40:07;87.28;;;44.40;;
62338;SDS011;48368;53.406;6.214;2023-05-07T06:42:33;88.15;;;44.08;;
62338;SDS011;48368;53.406;6.214;2023-05-07T06:45:00;88.85;;;46.58;;
62338;SDS011;48368;53.406;6.214;2023-05-07T06:47:26;83.75;;;43.88;;
62338;SDS011;48368;53.406;6.214;2023-05-07T06:49:52;83.25;;;43.88;;
62338;SDS011;48368;53.406;6.214;2023-05-07T06:52:17;86.93;;;44.30;;
62338;SDS011;48368;53.406;6.214;2023-05-07T06:54:43;81.40;;;42.88;;
62338;SDS011;48368;53.406;6.214;2023-05-07T06:57:08;80.60;;;42.08;;
62338;SDS011;48368;53.406;6.214;2023-05-07T06:59:34;80.18;;;43.35;;
62338;SDS011;48368;53.406;6.214;2023-05-07T07:02:00;82.80;;;42.83;;
62338;SDS011;48368;53.406;6.214;2023-05-07T07:04:25;77.13;;;42.10;;
62338;SDS011;48368;53.406;6.214;2023-05-07T07:06:52;74.75;;;40.83;;
62338;SDS011;48368;53.406;6.214;2023-05-07T07:09:18;77.88;;;41.65;;
62338;SDS011;48368;53.406;6.214;2023-05-07T07:11:44;80.70;;;43.03;;
62338;SDS011;48368;53.406;6.214;2023-05-07T07:14:09;73.97;;;39.25;;
62338;SDS011;48368;53.406;6.214;2023-05-07T07:16:35;76.95;;;41.17;;
62338;SDS011;48368;53.406;6.214;2023-05-07T07:19:01;73.57;;;39.00;;
62338;SDS011;48368;53.406;6.214;2023-05-07T07:21:26;61.33;;;36.03;;
62338;SDS011;48368;53.406;6.214;2023-05-07T07:23:52;64.88;;;35.92;;
62338;SDS011;48368;53.406;6.214;2023-05-07T07:26:18;61.90;;;35.38;;
62338;SDS011;48368;53.406;6.214;2023-05-07T07:28:44;58.60;;;33.63;;
62338;SDS011;48368;53.406;6.214;2023-05-07T07:31:10;62.83;;;36.17;;
62338;SDS011;48368;53.406;6.214;2023-05-07T07:33:36;64.13;;;35.13;;
62338;SDS011;48368;53.406;6.214;2023-05-07T07:36:02;60.25;;;32.47;;
62338;SDS011;48368;53.406;6.214;2023-05-07T07:38:30;56.80;;;32.75;;
62338;SDS011;48368;53.406;6.214;2023-05-07T07:40:56;61.72;;;34.05;;
62338;SDS011;48368;53.406;6.214;2023-05-07T07:43:22;59.88;;;34.00;;
62338;SDS011;48368;53.406;6.214;2023-05-07T07:45:47;64.78;;;36.65;;
62338;SDS011;48368;53.406;6.214;2023-05-07T07:48:13;66.70;;;36.17;;
62338;SDS011;48368;53.406;6.214;2023-05-07T07:50:39;63.72;;;35.80;;
62338;SDS011;48368;53.406;6.214;2023-05-07T07:53:04;67.80;;;36.80;;
62338;SDS011;48368;53.406;6.214;2023-05-07T07:55:30;66.07;;;36.15;;
62338;SDS011;48368;53.406;6.214;2023-05-07T07:57:57;56.60;;;34.33;;
62338;SDS011;48368;53.406;6.214;2023-05-07T08:00:22;56.35;;;33.67;;
62338;SDS011;48368;53.406;6.214;2023-05-07T08:02:48;53.42;;;31.17;;
62338;SDS011;48368;53.406;6.214;2023-05-07T08:05:14;53.13;;;30.38;;
62338;SDS011;48368;53.406;6.214;2023-05-07T08:07:40;54.10;;;31.55;;
62338;SDS011;48368;53.406;6.214;2023-05-07T08:10:06;60.78;;;34.60;;
62338;SDS011;48368;53.406;6.214;2023-05-07T08:12:32;63.78;;;37.70;;
62338;SDS011;48368;53.406;6.214;2023-05-07T08:14:57;62.88;;;37.88;;
62338;SDS011;48368;53.406;6.214;2023-05-07T08:17:23;65.78;;;37.50;;
62338;SDS011;48368;53.406;6.214;2023-05-07T08:19:49;61.53;;;33.58;;
62338;SDS011;48368;53.406;6.214;2023-05-07T08:22:15;53.83;;;31.58;;
62338;SDS011;48368;53.406;6.214;2023-05-07T08:24:42;48.90;;;29.73;;
62338;SDS011;48368;53.406;6.214;2023-05-07T08:27:08;46.55;;;27.90;;
62338;SDS011;48368;53.406;6.214;2023-05-07T08:29:34;48.92;;;27.63;;
62338;SDS011;48368;53.406;6.214;2023-05-07T08:31:59;50.03;;;29.10;;
62338;SDS011;48368;53.406;6.214;2023-05-07T08:34:25;50.15;;;30.83;;
62338;SDS011;48368;53.406;6.214;2023-05-07T08:36:51;60.03;;;33.47;;
62338;SDS011;48368;53.406;6.214;2023-05-07T08:39:16;64.00;;;36.15;;
62338;SDS011;48368;53.406;6.214;2023-05-07T08:41:44;65.32;;;35.60;;
62338;SDS011;48368;53.406;6.214;2023-05-07T08:44:14;61.92;;;35.97;;
62338;SDS011;48368;53.406;6.214;2023-05-07T08:46:41;59.65;;;34.30;;
62338;SDS011;48368;53.406;6.214;2023-05-07T08:49:08;59.75;;;34.78;;
62338;SDS011;48368;53.406;6.214;2023-05-07T08:51:35;60.92;;;35.88;;
62338;SDS011;48368;53.406;6.214;2023-05-07T08:54:01;57.20;;;33.53;;
62338;SDS011;48368;53.406;6.214;2023-05-07T08:56:27;54.38;;;32.22;;
62338;SDS011;48368;53.406;6.214;2023-05-07T08:58:53;58.65;;;31.80;;
62338;SDS011;48368;53.406;6.214;2023-05-07T09:01:23;57.88;;;34.65;;
62338;SDS011;48368;53.406;6.214;2023-05-07T09:03:49;55.85;;;35.20;;
62338;SDS011;48368;53.406;6.214;2023-05-07T09:06:16;54.75;;;31.05;;
62338;SDS011;48368;53.406;6.214;2023-05-07T09:08:48;53.13;;;31.42;;
62338;SDS011;48368;53.406;6.214;2023-05-07T09:11:21;50.53;;;29.23;;
62338;SDS011;48368;53.406;6.214;2023-05-07T09:13:48;45.75;;;27.48;;
62338;SDS011;48368;53.406;6.214;2023-05-07T09:16:15;48.25;;;28.05;;
62338;SDS011;48368;53.406;6.214;2023-05-07T09:18:41;45.17;;;27.00;;
62338;SDS011;48368;53.406;6.214;2023-05-07T09:21:11;45.95;;;27.98;;
62338;SDS011;48368;53.406;6.214;2023-05-07T09:23:40;45.95;;;27.52;;
62338;SDS011;48368;53.406;6.214;2023-05-07T09:26:06;43.28;;;28.15;;
62338;SDS011;48368;53.406;6.214;2023-05-07T09:28:37;43.00;;;26.73;;
62338;SDS011;48368;53.406;6.214;2023-05-07T09:31:05;43.67;;;26.55;;
62338;SDS011;48368;53.406;6.214;2023-05-07T09:33:31;43.92;;;26.27;;
62338;SDS011;48368;53.406;6.214;2023-05-07T09:35:56;42.95;;;25.50;;
62338;SDS011;48368;53.406;6.214;2023-05-07T09:38:22;42.13;;;26.15;;
62338;SDS011;48368;53.406;6.214;2023-05-07T09:40:52;42.72;;;27.10;;
62338;SDS011;48368;53.406;6.214;2023-05-07T09:43:34;41.13;;;25.80;;
62338;SDS011;48368;53.406;6.214;2023-05-07T09:46:09;43.10;;;26.45;;
62338;SDS011;48368;53.406;6.214;2023-05-07T09:48:37;44.78;;;27.13;;
62338;SDS011;48368;53.406;6.214;2023-05-07T09:51:25;41.97;;;26.13;;
62338;SDS011;48368;53.406;6.214;2023-05-07T09:53:54;40.92;;;26.48;;
62338;SDS011;48368;53.406;6.214;2023-05-07T09:56:21;37.05;;;25.02;;
62338;SDS011;48368;53.406;6.214;2023-05-07T09:58:48;37.47;;;24.38;;
62338;SDS011;48368;53.406;6.214;2023-05-07T10:01:16;38.40;;;26.60;;
62338;SDS011;48368;53.406;6.214;2023-05-07T10:03:44;35.40;;;23.70;;
62338;SDS011;48368;53.406;6.214;2023-05-07T10:06:11;36.25;;;24.38;;
62338;SDS011;48368;53.406;6.214;2023-05-07T10:08:38;36.00;;;24.90;;
62338;SDS011;48368;53.406;6.214;2023-05-07T10:11:05;37.33;;;24.55;;
62338;SDS011;48368;53.406;6.214;2023-05-07T10:13:31;37.00;;;26.05;;
62338;SDS011;48368;53.406;6.214;2023-05-07T10:16:00;36.55;;;25.58;;
62338;SDS011;48368;53.406;6.214;2023-05-07T10:18:27;38.88;;;25.17;;
62338;SDS011;48368;53.406;6.214;2023-05-07T10:20:59;36.25;;;26.05;;
62338;SDS011;48368;53.406;6.214;2023-05-07T10:23:36;39.35;;;25.00;;
62338;SDS011;48368;53.406;6.214;2023-05-07T10:26:04;36.88;;;24.77;;
62338;SDS011;48368;53.406;6.214;2023-05-07T10:28:33;36.65;;;24.38;;
62338;SDS011;48368;53.406;6.214;2023-05-07T10:31:09;34.30;;;23.67;;
62338;SDS011;48368;53.406;6.214;2023-05-07T10:33:39;38.35;;;24.85;;
62338;SDS011;48368;53.406;6.214;2023-05-07T10:36:07;33.22;;;23.92;;
62338;SDS011;48368;53.406;6.214;2023-05-07T10:38:33;34.30;;;24.38;;
62338;SDS011;48368;53.406;6.214;2023-05-07T10:40:59;35.05;;;23.98;;
62338;SDS011;48368;53.406;6.214;2023-05-07T10:43:24;35.65;;;22.85;;
62338;SDS011;48368;53.406;6.214;2023-05-07T10:46:09;34.85;;;23.45;;
62338;SDS011;48368;53.406;6.214;2023-05-07T10:51:26;31.75;;;23.10;;
62338;SDS011;48368;53.406;6.214;2023-05-07T10:54:18;35.88;;;23.60;;
62338;SDS011;48368;53.406;6.214;2023-05-07T10:56:44;31.98;;;23.55;;
62338;SDS011;48368;53.406;6.214;2023-05-07T11:01:54;33.45;;;23.17;;
62338;SDS011;48368;53.406;6.214;2023-05-07T11:04:28;30.73;;;22.25;;
62338;SDS011;48368;53.406;6.214;2023-05-07T11:15:11;29.13;;;21.58;;
62338;SDS011;48368;53.406;6.214;2023-05-07T11:26:05;29.40;;;21.60;;
62338;SDS011;48368;53.406;6.214;2023-05-07T11:28:39;29.15;;;20.92;;
62338;SDS011;48368;53.406;6.214;2023-05-07T11:31:07;28.50;;;21.20;;
62338;SDS011;48368;53.406;6.214;2023-05-07T11:33:34;28.95;;;20.50;;
62338;SDS011;48368;53.406;6.214;2023-05-07T11:36:01;28.63;;;22.02;;
62338;SDS011;48368;53.406;6.214;2023-05-07T11:38:28;28.60;;;22.20;;
62338;SDS011;48368;53.406;6.214;2023-05-07T11:41:01;27.80;;;22.08;;
62338;SDS011;48368;53.406;6.214;2023-05-07T11:43:27;29.00;;;21.00;;
62338;SDS011;48368;53.406;6.214;2023-05-07T11:45:53;26.77;;;20.48;;
62338;SDS011;48368;53.406;6.214;2023-05-07T11:48:19;27.33;;;20.77;;
62338;SDS011;48368;53.406;6.214;2023-05-07T11:50:53;27.42;;;20.27;;
62338;SDS011;48368;53.406;6.214;2023-05-07T11:53:24;28.33;;;20.55;;
62338;SDS011;48368;53.406;6.214;2023-05-07T11:56:00;25.35;;;19.58;;
62338;SDS011;48368;53.406;6.214;2023-05-07T11:58:31;26.40;;;20.00;;
62338;SDS011;48368;53.406;6.214;2023-05-07T12:00:56;27.35;;;20.48;;
62338;SDS011;48368;53.406;6.214;2023-05-07T12:03:22;28.55;;;21.42;;
62338;SDS011;48368;53.406;6.214;2023-05-07T12:05:48;26.77;;;21.17;;
62338;SDS011;48368;53.406;6.214;2023-05-07T12:08:14;26.13;;;21.23;;
62338;SDS011;48368;53.406;6.214;2023-05-07T12:10:41;28.48;;;21.30;;
62338;SDS011;48368;53.406;6.214;2023-05-07T12:13:20;28.52;;;21.40;;
62338;SDS011;48368;53.406;6.214;2023-05-07T12:15:50;26.10;;;21.30;;
62338;SDS011;48368;53.406;6.214;2023-05-07T12:18:20;25.23;;;19.55;;
62338;SDS011;48368;53.406;6.214;2023-05-07T12:20:47;25.52;;;19.52;;
62338;SDS011;48368;53.406;6.214;2023-05-07T12:23:13;25.05;;;19.38;;
62338;SDS011;48368;53.406;6.214;2023-05-07T12:25:40;25.45;;;19.60;;
62338;SDS011;48368;53.406;6.214;2023-05-07T12:28:20;26.05;;;20.25;;
62338;SDS011;48368;53.406;6.214;2023-05-07T12:30:46;25.92;;;20.50;;
62338;SDS011;48368;53.406;6.214;2023-05-07T12:33:22;25.70;;;19.40;;
62338;SDS011;48368;53.406;6.214;2023-05-07T12:35:50;24.15;;;20.60;;
62338;SDS011;48368;53.406;6.214;2023-05-07T12:38:16;24.08;;;20.25;;
62338;SDS011;48368;53.406;6.214;2023-05-07T12:45:50;25.52;;;19.95;;
62338;SDS011;48368;53.406;6.214;2023-05-07T12:48:16;23.30;;;18.85;;
62338;SDS011;48368;53.406;6.214;2023-05-07T12:50:42;22.52;;;19.17;;
62338;SDS011;48368;53.406;6.214;2023-05-07T12:53:09;20.75;;;18.15;;
62338;SDS011;48368;53.406;6.214;2023-05-07T12:55:56;22.85;;;19.08;;
62338;SDS011;48368;53.406;6.214;2023-05-07T12:58:27;23.77;;;19.95;;
62338;SDS011;48368;53.406;6.214;2023-05-07T13:00:55;22.48;;;19.40;;
62338;SDS011;48368;53.406;6.214;2023-05-07T13:03:33;20.52;;;18.33;;
62338;SDS011;48368;53.406;6.214;2023-05-07T13:06:04;22.02;;;18.95;;
62338;SDS011;48368;53.406;6.214;2023-05-07T13:08:32;21.98;;;19.40;;
62338;SDS011;48368;53.406;6.214;2023-05-07T13:10:59;20.35;;;18.17;;
62338;SDS011;48368;53.406;6.214;2023-05-07T13:13:28;21.00;;;18.77;;
62338;SDS011;48368;53.406;6.214;2023-05-07T13:15:58;21.55;;;18.60;;
62338;SDS011;48368;53.406;6.214;2023-05-07T13:18:24;21.15;;;18.95;;
62338;SDS011;48368;53.406;6.214;2023-05-07T13:20:51;22.05;;;18.13;;
62338;SDS011;48368;53.406;6.214;2023-05-07T13:23:17;24.23;;;18.70;;
62338;SDS011;48368;53.406;6.214;2023-05-07T13:25:46;22.13;;;18.88;;
62338;SDS011;48368;53.406;6.214;2023-05-07T13:28:13;21.13;;;18.77;;
62338;SDS011;48368;53.406;6.214;2023-05-07T13:30:38;21.13;;;18.13;;
62338;SDS011;48368;53.406;6.214;2023-05-07T13:33:06;21.13;;;18.27;;
62338;SDS011;48368;53.406;6.214;2023-05-07T13:35:32;18.63;;;16.13;;
62338;SDS011;48368;53.406;6.214;2023-05-07T13:37:58;20.17;;;17.88;;
62338;SDS011;48368;53.406;6.214;2023-05-07T13:40:24;21.50;;;17.85;;
62338;SDS011;48368;53.406;6.214;2023-05-07T13:42:50;20.70;;;18.40;;
62338;SDS011;48368;53.406;6.214;2023-05-07T13:45:16;21.35;;;18.52;;
62338;SDS011;48368;53.406;6.214;2023-05-07T13:47:43;19.70;;;17.60;;
62338;SDS011;48368;53.406;6.214;2023-05-07T13:50:09;20.52;;;17.50;;
62338;SDS011;48368;53.406;6.214;2023-05-07T13:52:36;21.25;;;17.90;;
62338;SDS011;48368;53.406;6.214;2023-05-07T13:55:03;20.95;;;18.23;;
62338;SDS011;48368;53.406;6.214;2023-05-07T13:57:29;22.17;;;19.00;;
62338;SDS011;48368;53.406;6.214;2023-05-07T13:59:54;19.42;;;17.25;;
62338;SDS011;48368;53.406;6.214;2023-05-07T14:02:20;20.30;;;17.10;;
62338;SDS011;48368;53.406;6.214;2023-05-07T14:04:46;20.83;;;17.50;;
62338;SDS011;48368;53.406;6.214;2023-05-07T14:07:11;21.38;;;19.05;;
62338;SDS011;48368;53.406;6.214;2023-05-07T14:09:37;20.17;;;17.63;;
62338;SDS011;48368;53.406;6.214;2023-05-07T14:12:03;21.77;;;18.45;;
62338;SDS011;48368;53.406;6.214;2023-05-07T14:14:29;22.80;;;20.40;;
62338;SDS011;48368;53.406;6.214;2023-05-07T14:16:55;20.90;;;18.67;;
62338;SDS011;48368;53.406;6.214;2023-05-07T14:19:21;21.77;;;18.92;;
62338;SDS011;48368;53.406;6.214;2023-05-07T14:21:47;20.60;;;18.38;;
62338;SDS011;48368;53.406;6.214;2023-05-07T14:24:13;23.13;;;18.70;;
62338;SDS011;48368;53.406;6.214;2023-05-07T14:26:39;21.13;;;18.90;;
62338;SDS011;48368;53.406;6.214;2023-05-07T14:29:05;21.30;;;19.05;;
62338;SDS011;48368;53.406;6.214;2023-05-07T14:31:31;19.98;;;17.17;;
62338;SDS011;48368;53.406;6.214;2023-05-07T14:33:58;20.15;;;17.27;;
62338;SDS011;48368;53.406;6.214;2023-05-07T14:36:24;21.13;;;17.52;;
62338;SDS011;48368;53.406;6.214;2023-05-07T14:38:51;19.95;;;17.85;;
62338;SDS011;48368;53.406;6.214;2023-05-07T14:41:19;23.63;;;18.60;;
62338;SDS011;48368;53.406;6.214;2023-05-07T14:43:46;21.70;;;19.15;;
62338;SDS011;48368;53.406;6.214;2023-05-07T14:46:17;22.35;;;18.83;;